Time;durP1;ratioP1;P1;durP2;ratioP2;P2;SDS_P1;SDS_P2;PMS_P1;PMS_P2;Temp;Humidity;BMP_temperature;BMP_pressure;BME280_temperature;BME280_humidity;BME280_pressure;Samples;Min_cycle;Max_cycle;Signal;HPM_P1;HPM_P2
2022/06/26 00:02:25;;;;;;;2.28;1.00;;;23.80;66.10;;;;;;5072806;28;20040;-61
2022/06/26 00:04:50;;;;;;;2.30;1.20;;;23.80;66.10;;;;;;5071283;28;20053;-61
2022/06/26 00:07:16;;;;;;;1.35;0.90;;;23.80;66.10;;;;;;5072522;28;20051;-60
2022/06/26 00:09:43;;;;;;;2.25;1.17;;;23.80;66.10;;;;;;5072626;28;20037;-61
2022/06/26 00:12:09;;;;;;;2.58;1.35;;;23.80;66.10;;;;;;5072092;28;20123;-61
2022/06/26 00:14:34;;;;;;;1.90;1.10;;;23.80;66.10;;;;;;5072709;28;20067;-61
2022/06/26 00:17:00;;;;;;;1.73;0.88;;;23.80;66.10;;;;;;5072280;28;20995;-61
2022/06/26 00:19:25;;;;;;;2.38;1.42;;;23.80;66.70;;;;;;5071791;28;20076;-61
2022/06/26 00:21:51;;;;;;;2.63;1.30;;;23.90;66.10;;;;;;5072515;28;20044;-61
2022/06/26 00:24:17;;;;;;;2.08;1.20;;;23.80;66.10;;;;;;5072400;28;20049;-61
2022/06/26 00:26:42;;;;;;;1.63;1.13;;;23.80;66.10;;;;;;5071446;28;20045;-61
2022/06/26 00:29:08;;;;;;;2.05;1.25;;;23.90;66.10;;;;;;5072423;28;20045;-61
2022/06/26 00:31:33;;;;;;;1.85;1.10;;;23.80;66.10;;;;;;5072531;28;20064;-61
2022/06/26 00:33:59;;;;;;;1.85;0.95;;;23.90;66.10;;;;;;5071315;28;20052;-61
2022/06/26 00:36:25;;;;;;;2.60;1.30;;;23.80;66.10;;;;;;5072275;28;20149;-60
2022/06/26 00:38:51;;;;;;;1.33;0.98;;;23.80;66.10;;;;;;5071923;28;20492;-60
2022/06/26 00:41:16;;;;;;;1.60;1.05;;;23.80;66.10;;;;;;5070007;28;20045;-61
2022/06/26 00:43:42;;;;;;;1.77;1.05;;;23.80;66.10;;;;;;5071959;28;20047;-61
2022/06/26 00:46:08;;;;;;;4.03;1.30;;;23.80;66.10;;;;;;5072261;28;20040;-61
2022/06/26 00:48:33;;;;;;;2.33;1.50;;;23.80;66.10;;;;;;5071516;28;20132;-61
2022/06/26 00:50:59;;;;;;;2.03;1.20;;;23.80;66.10;;;;;;5075734;28;20044;-60
2022/06/26 00:53:24;;;;;;;2.15;1.20;;;23.80;66.10;;;;;;5041850;28;20139;-60
2022/06/26 00:55:50;;;;;;;2.38;1.00;;;23.80;66.10;;;;;;5075187;28;20083;-61
2022/06/26 00:58:15;;;;;;;2.72;1.05;;;23.80;66.10;;;;;;5074956;28;20066;-61
2022/06/26 01:00:42;;;;;;;1.52;1.10;;;23.80;66.10;;;;;;5074902;28;20072;-61
2022/06/26 01:03:08;;;;;;;2.95;1.20;;;23.80;66.10;;;;;;5076084;28;20194;-60
2022/06/26 01:05:33;;;;;;;1.50;1.10;;;23.80;66.10;;;;;;5076274;28;20162;-61
2022/06/26 01:07:59;;;;;;;2.20;1.20;;;23.80;66.10;;;;;;5073536;28;20837;-61
2022/06/26 01:10:24;;;;;;;2.13;1.20;;;23.80;66.10;;;;;;5074621;28;20145;-59
2022/06/26 01:12:50;;;;;;;2.30;1.10;;;23.80;66.10;;;;;;5074446;28;20041;-60
2022/06/26 01:15:16;;;;;;;1.73;1.35;;;23.70;66.10;;;;;;5075137;28;20040;-60
2022/06/26 01:17:41;;;;;;;1.98;1.40;;;23.70;66.10;;;;;;5074421;28;20044;-60
2022/06/26 01:20:08;;;;;;;2.47;1.20;;;23.70;66.00;;;;;;5058211;28;20036;-60
2022/06/26 01:22:33;;;;;;;1.45;1.13;;;23.80;66.10;;;;;;5074907;28;20139;-60
2022/06/26 01:24:59;;;;;;;2.38;1.20;;;23.70;66.10;;;;;;5075451;28;20549;-60
2022/06/26 01:27:24;;;;;;;3.30;1.40;;;23.80;66.10;;;;;;5075575;28;20053;-60
2022/06/26 01:29:50;;;;;;;2.00;1.17;;;23.70;66.10;;;;;;5074470;28;20094;-60
2022/06/26 01:32:15;;;;;;;1.73;1.13;;;23.70;66.00;;;;;;5074042;28;20045;-61
2022/06/26 01:34:41;;;;;;;2.78;1.20;;;23.70;66.10;;;;;;5075410;28;20044;-60
2022/06/26 01:37:06;;;;;;;1.38;1.20;;;23.70;66.10;;;;;;5074991;28;20041;-60
2022/06/26 01:39:32;;;;;;;1.90;1.20;;;23.70;66.00;;;;;;5075496;28;20072;-60
2022/06/26 01:41:57;;;;;;;1.65;1.30;;;23.70;66.10;;;;;;5074954;28;20040;-61
2022/06/26 01:44:23;;;;;;;1.88;1.48;;;23.70;66.10;;;;;;5074080;28;20041;-60
2022/06/26 01:46:49;;;;;;;1.95;1.20;;;23.70;66.10;;;;;;5073370;28;20090;-61
2022/06/26 01:49:14;;;;;;;1.55;1.10;;;23.70;66.10;;;;;;5075294;28;20084;-60
2022/06/26 01:51:40;;;;;;;1.90;1.35;;;23.70;66.10;;;;;;5074387;28;20071;-60
2022/06/26 01:54:05;;;;;;;2.83;1.45;;;23.70;66.10;;;;;;5075269;28;20045;-60
2022/06/26 01:56:31;;;;;;;2.05;1.30;;;23.70;66.10;;;;;;5075072;28;20044;-60
2022/06/26 01:58:56;;;;;;;2.10;1.40;;;23.70;66.20;;;;;;5074008;28;20049;-61
2022/06/26 02:01:22;;;;;;;2.42;1.13;;;23.70;66.20;;;;;;5073165;28;20044;-62
2022/06/26 02:03:47;;;;;;;1.73;1.30;;;23.70;66.20;;;;;;5074749;28;20040;-61
2022/06/26 02:06:13;;;;;;;2.00;1.35;;;23.70;66.20;;;;;;5073976;28;20044;-61
2022/06/26 02:08:39;;;;;;;2.05;1.30;;;23.70;66.20;;;;;;5074861;28;20121;-61
2022/06/26 02:13:49;;;;;;;2.47;1.20;;;23.70;66.20;;;;;;5074460;28;20040;-62
2022/06/26 02:16:19;;;;;;;2.20;1.38;;;23.60;66.10;;;;;;5074604;28;20044;-61
2022/06/26 02:18:49;;;;;;;2.20;1.50;;;23.60;66.20;;;;;;5073836;28;20040;-61
2022/06/26 02:21:16;;;;;;;1.70;1.40;;;23.60;66.20;;;;;;5074647;28;20415;-61
2022/06/26 02:23:42;;;;;;;2.30;1.40;;;23.60;66.20;;;;;;5073587;28;20060;-61
2022/06/26 02:26:08;;;;;;;2.25;1.42;;;23.60;66.20;;;;;;5073497;28;20051;-61
2022/06/26 02:28:34;;;;;;;2.47;1.40;;;23.60;66.20;;;;;;5073517;28;20090;-62
2022/06/26 02:31:00;;;;;;;2.50;1.35;;;23.60;66.10;;;;;;5074305;28;20048;-62
2022/06/26 02:33:26;;;;;;;2.20;1.45;;;23.70;66.20;;;;;;5073854;28;20408;-61
2022/06/26 02:35:54;;;;;;;1.75;1.35;;;23.60;66.10;;;;;;5073976;28;20492;-62
2022/06/26 02:38:20;;;;;;;1.80;1.33;;;23.60;66.10;;;;;;5074469;28;20049;-61
2022/06/26 02:40:45;;;;;;;2.50;1.42;;;23.70;66.20;;;;;;5073191;28;20050;-61
2022/06/26 02:43:11;;;;;;;1.83;1.30;;;23.70;66.20;;;;;;5073178;28;20048;-61
2022/06/26 02:45:36;;;;;;;1.85;1.13;;;23.70;66.20;;;;;;5074391;28;20396;-62
2022/06/26 02:48:02;;;;;;;2.10;1.40;;;23.70;66.20;;;;;;5073165;28;20095;-61
2022/06/26 02:50:27;;;;;;;2.20;1.33;;;23.60;66.20;;;;;;5074135;28;20044;-61
2022/06/26 02:52:53;;;;;;;2.20;1.40;;;23.60;66.20;;;;;;5073786;28;20080;-62
2022/06/26 02:55:18;;;;;;;2.83;1.52;;;23.60;66.20;;;;;;5073423;28;20091;-61
2022/06/26 02:57:44;;;;;;;1.70;1.30;;;23.60;66.20;;;;;;5073492;28;20078;-61
2022/06/26 03:00:11;;;;;;;3.13;1.60;;;23.60;66.20;;;;;;5073340;28;20036;-62
2022/06/26 03:02:36;;;;;;;2.80;1.58;;;23.60;66.20;;;;;;5073782;28;20043;-61
2022/06/26 03:05:02;;;;;;;3.53;1.40;;;23.60;66.20;;;;;;5073711;28;20044;-61
2022/06/26 03:07:28;;;;;;;2.60;1.50;;;23.60;66.20;;;;;;5072978;28;20443;-61
2022/06/26 03:09:53;;;;;;;1.60;1.30;;;23.60;66.20;;;;;;5073538;28;20044;-61
2022/06/26 03:12:19;;;;;;;1.63;1.23;;;23.60;66.20;;;;;;5073076;28;20041;-61
2022/06/26 03:14:44;;;;;;;2.65;1.30;;;23.60;66.20;;;;;;5071860;28;20069;-61
2022/06/26 03:17:10;;;;;;;3.08;1.83;;;23.60;66.20;;;;;;5073506;28;20048;-61
2022/06/26 03:19:36;;;;;;;2.72;1.65;;;23.60;66.30;;;;;;5073406;28;20151;-61
2022/06/26 03:22:02;;;;;;;3.03;1.67;;;23.60;66.30;;;;;;5072549;28;20043;-61
2022/06/26 03:24:27;;;;;;;1.92;1.60;;;23.60;66.30;;;;;;5073256;28;20056;-61
2022/06/26 03:26:53;;;;;;;2.88;1.77;;;23.60;66.30;;;;;;5072740;28;20446;-61
2022/06/26 03:29:19;;;;;;;2.22;1.50;;;23.60;66.40;;;;;;5072780;28;20059;-61
2022/06/26 03:31:44;;;;;;;2.63;1.58;;;23.60;66.50;;;;;;5071628;28;20040;-61
2022/06/26 03:34:10;;;;;;;2.08;1.60;;;23.60;66.40;;;;;;5073082;28;20142;-61
2022/06/26 03:36:35;;;;;;;1.83;1.40;;;23.60;66.50;;;;;;5072743;28;20045;-61
2022/06/26 03:39:01;;;;;;;2.30;1.75;;;23.60;66.50;;;;;;5072670;28;20047;-61
2022/06/26 03:41:27;;;;;;;3.03;1.73;;;23.60;66.50;;;;;;5072852;28;20050;-61
2022/06/26 03:43:53;;;;;;;1.80;1.50;;;23.60;66.50;;;;;;5072031;28;20045;-61
2022/06/26 03:46:18;;;;;;;3.45;1.90;;;23.60;66.50;;;;;;5072921;28;20045;-61
2022/06/26 03:48:44;;;;;;;2.08;1.40;;;23.60;66.50;;;;;;5071360;28;20055;-61
2022/06/26 03:51:09;;;;;;;2.63;1.67;;;23.50;66.40;;;;;;5072319;28;20036;-61
2022/06/26 03:53:35;;;;;;;2.53;1.50;;;23.60;66.50;;;;;;5072991;28;20049;-61
2022/06/26 03:56:01;;;;;;;2.60;1.58;;;23.50;66.50;;;;;;5071545;28;20095;-61
2022/06/26 03:58:27;;;;;;;3.35;1.90;;;23.50;66.50;;;;;;5072177;28;20036;-61
2022/06/26 04:00:53;;;;;;;2.75;1.70;;;23.50;66.50;;;;;;5068881;28;20040;-61
2022/06/26 04:03:18;;;;;;;2.45;1.60;;;23.50;66.50;;;;;;5057761;28;20044;-61
2022/06/26 04:05:44;;;;;;;3.05;1.27;;;23.50;66.50;;;;;;5071426;28;20555;-61
2022/06/26 04:08:10;;;;;;;2.17;1.50;;;23.50;66.50;;;;;;5072641;28;20032;-61
2022/06/26 04:10:35;;;;;;;2.80;1.60;;;23.60;66.60;;;;;;5071843;28;20503;-61
2022/06/26 04:13:02;;;;;;;2.42;1.33;;;23.50;66.50;;;;;;5072121;28;20388;-61
2022/06/26 04:15:28;;;;;;;1.95;1.50;;;23.50;66.50;;;;;;5072584;28;20047;-61
2022/06/26 04:17:54;;;;;;;2.40;1.67;;;23.50;66.50;;;;;;5071770;28;20137;-61
2022/06/26 04:20:20;;;;;;;3.33;1.40;;;23.50;66.50;;;;;;5072672;28;20471;-61
2022/06/26 04:22:58;;;;;;;2.20;1.38;;;23.50;66.50;;;;;;5072030;28;20052;-61
2022/06/26 04:25:24;;;;;;;2.88;1.70;;;23.50;66.40;;;;;;5071611;28;20052;-61
2022/06/26 04:27:50;;;;;;;2.45;1.50;;;23.50;66.50;;;;;;5072130;28;20369;-61
2022/06/26 04:30:15;;;;;;;2.25;1.58;;;23.50;66.50;;;;;;5072570;28;20063;-61
2022/06/26 04:32:41;;;;;;;2.65;1.30;;;23.50;66.50;;;;;;5071283;28;20121;-61
2022/06/26 04:35:07;;;;;;;2.28;1.70;;;23.50;66.50;;;;;;5072512;28;20115;-61
2022/06/26 04:37:33;;;;;;;2.40;1.63;;;23.50;66.50;;;;;;5072293;28;20097;-61
2022/06/26 04:39:58;;;;;;;1.67;1.20;;;23.50;66.50;;;;;;5071381;28;20053;-61
2022/06/26 04:42:24;;;;;;;2.45;1.50;;;23.50;66.50;;;;;;5072253;28;20068;-61
2022/06/26 04:44:49;;;;;;;3.05;1.40;;;23.50;66.50;;;;;;5071963;28;20045;-61
2022/06/26 04:47:15;;;;;;;2.00;1.23;;;23.50;66.50;;;;;;5071405;28;20045;-61
2022/06/26 04:49:40;;;;;;;2.35;1.67;;;23.50;66.50;;;;;;5071841;28;20044;-61
2022/06/26 04:52:06;;;;;;;2.72;1.48;;;23.50;66.50;;;;;;5072484;28;20093;-61
2022/06/26 04:54:32;;;;;;;2.47;1.45;;;23.50;66.50;;;;;;5071461;28;20048;-62
2022/06/26 04:56:57;;;;;;;2.00;1.33;;;23.50;66.50;;;;;;5071647;28;20045;-61
2022/06/26 04:59:23;;;;;;;1.98;1.55;;;23.50;66.50;;;;;;5072472;28;20044;-62
2022/06/26 05:01:48;;;;;;;2.45;1.52;;;23.50;66.50;;;;;;5071030;28;20051;-62
2022/06/26 05:04:14;;;;;;;2.30;1.40;;;23.50;66.50;;;;;;5072155;28;20052;-61
2022/06/26 05:06:40;;;;;;;2.65;1.58;;;23.50;66.50;;;;;;5071808;28;20037;-61
2022/06/26 05:09:06;;;;;;;2.17;1.40;;;23.50;66.50;;;;;;5071660;28;20468;-62
2022/06/26 05:11:31;;;;;;;2.30;1.42;;;23.50;66.50;;;;;;5072289;28;20037;-61
2022/06/26 05:13:57;;;;;;;1.70;1.10;;;23.50;66.50;;;;;;5071143;28;20131;-61
2022/06/26 05:16:22;;;;;;;2.63;1.48;;;23.50;66.60;;;;;;5071867;28;20044;-61
2022/06/26 05:18:48;;;;;;;2.17;1.45;;;23.50;66.70;;;;;;5072021;28;20048;-61
2022/06/26 05:21:13;;;;;;;1.75;1.40;;;23.50;66.70;;;;;;5071400;28;20044;-61
2022/06/26 05:23:39;;;;;;;2.25;1.30;;;23.50;66.70;;;;;;5071531;28;20053;-61
2022/06/26 05:26:06;;;;;;;2.33;1.42;;;23.50;66.70;;;;;;5072024;28;20047;-61
2022/06/26 05:28:32;;;;;;;2.58;1.30;;;23.50;66.70;;;;;;5070791;28;20079;-61
2022/06/26 05:30:57;;;;;;;1.92;1.48;;;23.50;66.70;;;;;;5071527;28;20083;-61
2022/06/26 05:33:23;;;;;;;2.70;1.38;;;23.50;66.70;;;;;;5072088;28;20044;-61
2022/06/26 05:35:49;;;;;;;2.08;1.40;;;23.60;66.80;;;;;;5070900;28;20499;-61
2022/06/26 05:38:14;;;;;;;2.50;1.55;;;23.60;66.80;;;;;;5075567;28;20508;-61
2022/06/26 05:40:40;;;;;;;2.08;1.20;;;23.60;66.80;;;;;;5075094;28;20570;-61
2022/06/26 05:43:06;;;;;;;2.38;1.55;;;23.60;66.80;;;;;;5074697;28;20043;-61
2022/06/26 05:45:31;;;;;;;2.78;1.40;;;23.60;66.80;;;;;;5074022;28;20071;-61
2022/06/26 05:47:57;;;;;;;2.33;1.83;;;23.60;66.90;;;;;;5074832;28;20036;-61
2022/06/26 05:50:25;;;;;;;2.13;1.30;;;23.60;66.80;;;;;;5074738;28;20392;-61
2022/06/26 05:52:51;;;;;;;2.17;1.30;;;23.60;66.80;;;;;;5074935;28;20036;-61
2022/06/26 05:55:16;;;;;;;3.83;1.70;;;23.60;66.70;;;;;;5075395;28;20190;-61
2022/06/26 05:57:42;;;;;;;1.58;1.20;;;23.60;66.70;;;;;;5074079;28;20119;-61
2022/06/26 06:00:08;;;;;;;3.03;1.65;;;23.60;66.70;;;;;;5074592;28;20044;-61
2022/06/26 06:02:33;;;;;;;3.63;1.73;;;23.60;66.80;;;;;;5075172;28;20036;-62
2022/06/26 06:04:59;;;;;;;1.88;1.38;;;23.70;66.80;;;;;;5073807;28;20044;-62
2022/06/26 06:07:24;;;;;;;2.90;1.50;;;23.60;66.80;;;;;;5075457;28;20049;-61
2022/06/26 06:09:50;;;;;;;2.08;1.58;;;23.60;66.80;;;;;;5074673;28;20131;-61
2022/06/26 06:12:16;;;;;;;2.50;1.33;;;23.60;66.80;;;;;;5072935;28;20045;-61
2022/06/26 06:14:41;;;;;;;1.90;1.40;;;23.70;66.80;;;;;;5074445;28;20106;-61
2022/06/26 06:19:51;;;;;;;1.67;1.20;;;23.70;66.80;;;;;;5074331;28;20442;-62
2022/06/26 06:22:17;;;;;;;3.22;1.80;;;23.70;66.80;;;;;;5074526;28;20040;-64
2022/06/26 06:24:42;;;;;;;4.90;3.40;;;23.70;66.70;;;;;;5073757;28;20086;-63
2022/06/26 06:27:08;;;;;;;5.65;4.25;;;23.70;66.50;;;;;;5074636;28;20048;-64
2022/06/26 06:29:33;;;;;;;6.53;4.70;;;23.70;66.10;;;;;;5073265;28;20048;-64
2022/06/26 06:31:59;;;;;;;7.15;5.93;;;23.60;65.80;;;;;;5073458;28;20253;-63
2022/06/26 06:34:24;;;;;;;8.63;4.95;;;23.60;65.70;;;;;;5074411;28;20044;-64
2022/06/26 06:36:50;;;;;;;9.38;6.13;;;23.60;65.70;;;;;;5074385;28;20037;-64
2022/06/26 06:39:15;;;;;;;7.85;5.57;;;23.50;65.70;;;;;;5073868;28;20381;-64
2022/06/26 06:41:41;;;;;;;10.43;5.55;;;23.40;65.70;;;;;;5074215;28;20427;-64
2022/06/26 06:44:06;;;;;;;8.85;6.35;;;23.40;66.20;;;;;;5074287;28;20494;-63
2022/06/26 06:46:32;;;;;;;8.07;5.45;;;23.40;65.50;;;;;;5073569;28;20040;-61
2022/06/26 06:48:58;;;;;;;7.03;5.47;;;23.30;65.60;;;;;;5064297;28;20051;-64
2022/06/26 06:51:23;;;;;;;10.93;6.20;;;23.30;65.60;;;;;;5073754;28;20046;-64
2022/06/26 06:53:49;;;;;;;7.43;4.80;;;23.30;65.50;;;;;;5071936;28;20442;-64
2022/06/26 06:56:14;;;;;;;8.25;5.85;;;23.30;65.50;;;;;;5074211;28;20450;-64
2022/06/26 06:58:40;;;;;;;9.40;6.38;;;23.20;65.20;;;;;;5072084;28;20033;-64
2022/06/26 07:01:05;;;;;;;8.73;5.50;;;23.20;65.00;;;;;;5073285;28;20044;-65
2022/06/26 07:03:31;;;;;;;7.05;5.82;;;23.20;65.00;;;;;;5073647;28;20068;-64
2022/06/26 07:05:56;;;;;;;7.93;4.90;;;23.10;65.00;;;;;;5073624;28;20044;-68
2022/06/26 07:08:22;;;;;;;7.28;5.00;;;23.10;65.10;;;;;;5073670;28;20040;-68
2022/06/26 07:10:47;;;;;;;7.45;4.38;;;23.10;65.40;;;;;;5074238;28;20074;-66
2022/06/26 07:13:13;;;;;;;6.57;4.20;;;23.20;65.80;;;;;;5073623;28;20040;-66
2022/06/26 07:15:38;;;;;;;5.68;4.10;;;23.20;65.80;;;;;;5073092;28;20078;-68
2022/06/26 07:18:04;;;;;;;5.90;4.00;;;23.20;65.80;;;;;;5073017;28;20086;-66
2022/06/26 07:20:30;;;;;;;7.63;3.35;;;23.30;65.80;;;;;;5072885;28;20062;-64
2022/06/26 07:22:55;;;;;;;5.22;3.63;;;23.30;65.80;;;;;;5072970;28;20056;-66
2022/06/26 07:25:21;;;;;;;6.88;3.55;;;23.40;65.80;;;;;;5073392;28;20037;-66
2022/06/26 07:27:47;;;;;;;4.43;2.97;;;23.40;65.80;;;;;;5072379;28;20093;-66
2022/06/26 07:30:12;;;;;;;7.40;3.70;;;23.40;65.80;;;;;;5072265;28;20041;-65
2022/06/26 07:32:38;;;;;;;6.93;3.42;;;23.40;65.70;;;;;;5073452;28;20424;-66
2022/06/26 07:35:04;;;;;;;6.25;3.50;;;23.50;65.60;;;;;;5072313;28;20382;-66
2022/06/26 07:37:29;;;;;;;4.32;3.10;;;23.50;65.60;;;;;;5073217;28;20043;-64
2022/06/26 07:39:55;;;;;;;5.03;3.30;;;23.50;65.50;;;;;;5072781;28;20044;-65
2022/06/26 07:42:21;;;;;;;5.53;3.50;;;23.50;65.50;;;;;;5072473;28;20036;-64
2022/06/26 07:44:46;;;;;;;8.10;3.58;;;23.60;65.40;;;;;;5072734;28;20044;-61
2022/06/26 07:47:12;;;;;;;5.15;3.20;;;23.60;65.30;;;;;;5072547;28;20039;-62
2022/06/26 07:49:37;;;;;;;4.95;3.35;;;23.60;65.20;;;;;;5071905;28;20053;-61
2022/06/26 07:52:03;;;;;;;3.78;2.70;;;23.60;65.20;;;;;;5072768;28;20032;-61
2022/06/26 07:54:29;;;;;;;5.53;3.22;;;23.70;65.20;;;;;;5072857;28;20488;-61
2022/06/26 07:56:54;;;;;;;5.07;3.00;;;23.70;65.30;;;;;;5071894;28;20037;-62
2022/06/26 07:59:20;;;;;;;5.60;2.90;;;23.70;65.40;;;;;;5072162;28;20043;-62
2022/06/26 08:01:46;;;;;;;4.88;2.60;;;23.70;65.30;;;;;;5071177;28;20041;-63
2022/06/26 08:04:11;;;;;;;3.55;2.55;;;23.80;65.30;;;;;;5072186;28;20185;-61
2022/06/26 08:06:37;;;;;;;4.95;2.80;;;23.80;65.40;;;;;;5072934;28;20037;-62
2022/06/26 08:09:02;;;;;;;4.25;2.88;;;23.80;65.40;;;;;;5072567;28;20532;-61
2022/06/26 08:11:28;;;;;;;5.78;3.00;;;23.80;65.40;;;;;;5072213;28;20495;-61
2022/06/26 08:13:53;;;;;;;6.07;2.83;;;23.90;65.40;;;;;;5072029;28;20048;-61
2022/06/26 08:16:19;;;;;;;4.40;2.40;;;23.90;65.40;;;;;;5072517;28;20048;-61
2022/06/26 08:18:45;;;;;;;4.82;2.50;;;24.00;65.40;;;;;;5071726;28;20040;-61
2022/06/26 08:23:54;;;;;;;3.95;2.47;;;24.00;65.20;;;;;;5071299;28;20072;-62
2022/06/26 08:26:20;;;;;;;4.43;2.97;;;24.00;65.20;;;;;;5072258;28;20080;-62
2022/06/26 08:28:46;;;;;;;5.47;3.05;;;24.10;65.30;;;;;;5070968;28;20530;-62
2022/06/26 08:31:11;;;;;;;4.75;2.50;;;24.00;65.30;;;;;;5071436;28;20048;-65
2022/06/26 08:33:37;;;;;;;5.28;2.65;;;24.10;65.30;;;;;;5070814;28;20032;-63
2022/06/26 08:36:04;;;;;;;5.45;2.50;;;24.10;65.20;;;;;;5071449;28;20044;-62
2022/06/26 08:38:30;;;;;;;4.45;2.47;;;24.10;65.10;;;;;;5071501;28;20048;-62
2022/06/26 08:40:57;;;;;;;3.45;2.67;;;24.10;65.00;;;;;;5072207;28;20036;-62
2022/06/26 08:43:22;;;;;;;4.00;2.65;;;24.10;64.80;;;;;;5054383;28;20552;-62
2022/06/26 08:45:50;;;;;;;4.22;2.67;;;24.10;64.80;;;;;;5071276;28;20123;-62
2022/06/26 08:48:15;;;;;;;3.67;2.38;;;24.10;64.70;;;;;;5071218;28;20056;-62
2022/06/26 08:50:41;;;;;;;2.92;2.30;;;24.10;64.70;;;;;;5070993;28;20074;-62
2022/06/26 08:53:07;;;;;;;3.65;2.58;;;24.20;64.60;;;;;;5053585;28;20485;-62
2022/06/26 08:55:32;;;;;;;7.18;2.85;;;24.20;64.50;;;;;;5072001;28;20044;-61
2022/06/26 08:57:58;;;;;;;4.38;2.53;;;24.20;64.50;;;;;;5071852;28;20581;-62
2022/06/26 09:00:23;;;;;;;3.97;2.63;;;24.20;64.40;;;;;;5071558;28;20400;-62
2022/06/26 09:02:49;;;;;;;4.38;2.20;;;24.20;64.40;;;;;;5071866;28;20462;-62
2022/06/26 09:05:14;;;;;;;4.88;2.20;;;24.20;64.30;;;;;;5072300;28;20060;-62
2022/06/26 09:07:52;;;;;;;4.40;2.20;;;24.30;64.30;;;;;;5070962;28;20044;-62
2022/06/26 09:10:18;;;;;;;4.55;2.45;;;24.20;64.20;;;;;;5072041;28;20044;-62
2022/06/26 09:12:53;;;;;;;3.22;2.30;;;24.30;64.20;;;;;;5073589;28;20036;-61
2022/06/26 09:15:19;;;;;;;5.32;2.55;;;24.20;64.10;;;;;;5073392;28;20428;-62
2022/06/26 09:17:57;;;;;;;3.70;2.45;;;24.30;64.20;;;;;;5075197;28;20473;-65
2022/06/26 09:20:23;;;;;;;6.57;3.45;;;24.30;64.10;;;;;;5073978;28;20511;-67
2022/06/26 09:22:53;;;;;;;6.85;3.15;;;24.20;64.10;;;;;;5073687;28;20045;-66
2022/06/26 09:25:18;;;;;;;8.77;3.65;;;24.20;63.80;;;;;;5075929;28;20041;-66
2022/06/26 09:27:44;;;;;;;5.68;3.55;;;24.20;63.50;;;;;;5074430;28;20040;-67
2022/06/26 09:30:10;;;;;;;5.50;3.05;;;24.20;63.10;;;;;;5074421;28;20114;-60
2022/06/26 09:32:35;;;;;;;5.55;2.92;;;24.20;62.60;;;;;;5074965;28;20053;-67
2022/06/26 09:35:01;;;;;;;6.63;3.20;;;24.20;62.20;;;;;;5074361;28;20051;-67
2022/06/26 09:37:33;;;;;;;4.72;2.90;;;24.20;61.70;;;;;;5074406;28;20565;-66
2022/06/26 09:40:06;;;;;;;6.13;3.00;;;24.10;61.20;;;;;;5075062;28;20862;-66
2022/06/26 09:42:32;;;;;;;4.82;2.80;;;24.10;60.70;;;;;;5073581;28;20080;-66
2022/06/26 09:44:59;;;;;;;4.88;2.90;;;24.10;60.80;;;;;;5074610;28;20119;-66
2022/06/26 09:47:27;;;;;;;4.90;2.83;;;24.10;60.60;;;;;;5075230;28;20445;-66
2022/06/26 09:49:54;;;;;;;5.72;3.15;;;24.00;60.20;;;;;;5074248;28;20518;-66
2022/06/26 09:52:24;;;;;;;4.00;2.63;;;24.00;60.40;;;;;;5075093;28;20039;-64
2022/06/26 09:54:50;;;;;;;4.82;3.00;;;24.00;60.10;;;;;;5074501;28;20040;-60
2022/06/26 09:57:16;;;;;;;3.95;2.40;;;24.00;60.10;;;;;;5074391;28;20059;-65
2022/06/26 09:59:41;;;;;;;4.13;2.30;;;24.00;59.90;;;;;;5074881;28;20043;-66
2022/06/26 10:07:37;;;;;;;5.70;2.65;;;23.90;59.10;;;;;;5059883;28;20057;-65
2022/06/26 10:10:03;;;;;;;4.07;2.28;;;23.90;59.20;;;;;;5073498;28;20062;-65
2022/06/26 10:12:28;;;;;;;3.35;2.20;;;23.90;59.40;;;;;;5073816;28;20056;-65
2022/06/26 10:14:55;;;;;;;6.93;2.33;;;23.90;59.20;;;;;;5072957;28;20040;-64
2022/06/26 10:17:34;;;;;;;5.50;2.30;;;23.90;59.10;;;;;;5056305;28;20040;-64
2022/06/26 10:20:06;;;;;;;5.97;2.70;;;23.90;58.80;;;;;;5057271;28;20059;-64
2022/06/26 10:22:39;;;;;;;3.65;2.30;;;23.90;58.80;;;;;;5072503;28;20492;-64
2022/06/26 10:25:05;;;;;;;3.30;2.05;;;23.90;58.30;;;;;;5073102;28;20492;-66
2022/06/26 10:27:35;;;;;;;3.78;2.20;;;23.90;58.50;;;;;;5073104;28;20055;-66
2022/06/26 10:30:04;;;;;;;4.22;2.13;;;23.90;58.50;;;;;;5071419;28;20060;-65
2022/06/26 10:32:30;;;;;;;6.55;2.20;;;23.90;58.60;;;;;;5072183;28;20174;-65
2022/06/26 10:34:56;;;;;;;4.47;2.10;;;23.90;58.20;;;;;;5074440;28;20131;-65
2022/06/26 10:37:21;;;;;;;3.45;1.85;;;23.90;58.00;;;;;;5073634;28;20433;-65
2022/06/26 10:39:49;;;;;;;8.32;2.95;;;23.90;57.90;;;;;;5074020;28;20189;-65
2022/06/26 10:45:09;;;;;;;3.38;2.22;;;23.90;58.00;;;;;;5072853;28;20551;-65
2022/06/26 10:47:45;;;;;;;4.28;2.10;;;23.90;58.00;;;;;;5074048;28;20480;-66
2022/06/26 10:50:30;;;;;;;5.35;2.30;;;23.90;58.00;;;;;;5073521;28;20045;-66
2022/06/26 10:53:14;;;;;;;4.13;2.17;;;23.90;57.90;;;;;;5073183;28;20048;-66
2022/06/26 10:55:41;;;;;;;4.63;2.45;;;23.90;57.90;;;;;;5074017;28;20071;-66
2022/06/26 10:58:06;;;;;;;3.30;1.88;;;24.00;58.00;;;;;;5073873;28;20123;-64
2022/06/26 11:00:32;;;;;;;3.42;2.10;;;23.90;57.90;;;;;;5073271;28;20479;-64
2022/06/26 11:02:58;;;;;;;4.13;1.92;;;24.00;57.90;;;;;;5076098;28;20105;-64
2022/06/26 11:05:23;;;;;;;4.88;2.13;;;23.90;57.80;;;;;;5073979;28;20377;-64
2022/06/26 11:07:51;;;;;;;3.38;2.25;;;24.00;57.70;;;;;;5071307;28;20090;-64
2022/06/26 11:10:18;;;;;;;4.57;2.03;;;23.90;57.60;;;;;;5072449;28;20049;-64
2022/06/26 11:12:45;;;;;;;5.77;2.60;;;24.00;57.70;;;;;;5072224;28;20519;-64
2022/06/26 11:15:32;;;;;;;4.43;2.03;;;24.00;57.80;;;;;;5073624;28;20066;-64
2022/06/26 11:18:05;;;;;;;7.18;2.30;;;24.00;57.70;;;;;;5072909;28;20569;-64
2022/06/26 11:20:49;;;;;;;3.10;2.00;;;24.00;57.70;;;;;;5072843;28;20052;-66
2022/06/26 11:23:22;;;;;;;5.13;2.00;;;24.00;56.80;;;;;;5073393;28;20064;-68
2022/06/26 11:25:49;;;;;;;5.20;1.67;;;24.00;56.80;;;;;;5071822;28;20049;-68
2022/06/26 11:28:16;;;;;;;4.38;1.90;;;24.00;56.80;;;;;;5056300;28;20135;-69
2022/06/26 11:30:42;;;;;;;2.85;1.70;;;24.00;56.70;;;;;;5060168;28;20077;-70
2022/06/26 11:33:09;;;;;;;4.65;1.67;;;24.00;56.70;;;;;;5055213;28;20136;-67
2022/06/26 11:35:35;;;;;;;5.22;1.90;;;24.00;56.80;;;;;;5056782;28;20132;-69
2022/06/26 11:38:12;;;;;;;3.40;1.70;;;24.00;56.90;;;;;;5057044;28;20041;-68
2022/06/26 11:40:38;;;;;;;2.87;1.80;;;24.10;57.00;;;;;;5057762;28;20385;-71
2022/06/26 11:43:04;;;;;;;2.83;1.70;;;24.10;57.00;;;;;;5056980;28;20396;-70
2022/06/26 11:45:32;;;;;;;4.97;1.98;;;24.10;56.90;;;;;;5058422;28;20484;-69
2022/06/26 11:48:00;;;;;;;4.32;1.90;;;24.10;56.70;;;;;;5058378;28;20041;-70
2022/06/26 11:50:29;;;;;;;3.30;1.73;;;24.20;57.10;;;;;;5057140;28;20120;-69
2022/06/26 11:52:58;;;;;;;6.50;1.90;;;24.20;57.30;;;;;;5059207;28;20330;-67
2022/06/26 11:55:25;;;;;;;5.40;2.10;;;24.20;57.40;;;;;;5055207;28;20052;-70
2022/06/26 11:57:51;;;;;;;2.72;1.60;;;24.20;57.40;;;;;;5055548;28;20044;-71
2022/06/26 12:00:18;;;;;;;4.70;1.98;;;24.20;57.40;;;;;;5058781;28;20052;-71
2022/06/26 12:02:45;;;;;;;4.27;2.20;;;24.20;57.50;;;;;;5055722;28;20073;-69
2022/06/26 12:05:11;;;;;;;4.17;1.97;;;24.30;57.50;;;;;;5059236;28;20525;-69
2022/06/26 12:07:45;;;;;;;3.28;1.80;;;24.30;57.40;;;;;;5061457;28;20112;-67
2022/06/26 12:10:11;;;;;;;3.67;1.88;;;24.30;57.40;;;;;;5055282;28;20041;-68
2022/06/26 12:12:36;;;;;;;4.50;1.60;;;24.30;57.40;;;;;;5056991;28;20340;-67
2022/06/26 12:15:02;;;;;;;3.72;1.60;;;24.30;57.50;;;;;;5063990;28;20068;-63
2022/06/26 12:17:28;;;;;;;2.72;1.77;;;24.40;57.50;;;;;;5059615;28;20055;-64
2022/06/26 12:19:54;;;;;;;5.22;2.00;;;24.40;57.40;;;;;;5072182;28;20093;-66
2022/06/26 12:22:31;;;;;;;3.20;1.90;;;24.40;57.30;;;;;;5070446;28;20510;-66
2022/06/26 12:24:57;;;;;;;3.63;1.70;;;24.40;56.90;;;;;;5071810;28;20514;-67
2022/06/26 12:27:39;;;;;;;5.03;1.80;;;24.30;56.70;;;;;;5072079;28;20044;-66
2022/06/26 12:30:25;;;;;;;4.90;2.17;;;24.30;55.90;;;;;;5071429;28;20055;-68
2022/06/26 12:32:50;;;;;;;4.90;1.55;;;24.30;55.80;;;;;;5071825;28;20444;-71
2022/06/26 12:35:16;;;;;;;4.30;2.20;;;24.30;55.90;;;;;;5072546;28;20051;-68
2022/06/26 12:37:42;;;;;;;5.22;1.65;;;24.30;56.10;;;;;;5071086;28;20492;-62
2022/06/26 12:40:08;;;;;;;4.80;1.98;;;24.30;56.20;;;;;;5072292;28;20063;-62
2022/06/26 12:42:33;;;;;;;5.30;2.15;;;24.30;56.40;;;;;;5072456;28;20098;-62
2022/06/26 12:44:59;;;;;;;3.83;1.80;;;24.30;56.60;;;;;;5071609;28;20048;-62
2022/06/26 12:47:24;;;;;;;4.35;1.80;;;24.40;56.80;;;;;;5076096;28;20049;-63
2022/06/26 12:49:50;;;;;;;4.15;1.70;;;24.40;57.00;;;;;;5076180;28;20044;-62
2022/06/26 12:52:16;;;;;;;6.13;1.83;;;24.40;57.20;;;;;;5075906;28;20109;-62
2022/06/26 12:54:41;;;;;;;5.35;1.73;;;24.50;57.50;;;;;;5075871;28;20073;-63
2022/06/26 12:57:07;;;;;;;3.58;1.70;;;24.50;57.70;;;;;;5075690;28;20503;-63
2022/06/26 12:59:32;;;;;;;3.78;1.80;;;24.50;58.00;;;;;;5074772;28;20509;-63
2022/06/26 13:01:58;;;;;;;4.15;1.75;;;24.50;58.20;;;;;;5076084;28;20036;-63